This is the latest recevied weather packets stored in our database for station/object NUUKSIO. If no packets are shown the sender has not sent any weather packets the latest 10 day(s).
| Time | Temp. | Humidity | Pressure | Rain* | Wind** | Luminosity | Snow |
|---|---|---|---|---|---|---|---|
| 1777830429 | 13.33° C | 60% | 1007.3 hPa | 0 mm | - | - | - |
| 1777829235 | 13.33° C | 59% | 1007.3 hPa | 0 mm | - | - | - |
| 1777828028 | 13.89° C | 56% | 1007.2 hPa | 0 mm | - | - | - |
| 1777826828 | 14.44° C | 55% | 1007.3 hPa | 0 mm | - | - | - |
| 1777825628 | 14.44° C | 54% | 1007.3 hPa | 0 mm | - | - | - |
| 1777824428 | 15° C | 51% | 1007.4 hPa | 0 mm | - | - | - |
| 1777823228 | 15.56° C | 50% | 1007.5 hPa | 0 mm | - | - | - |
| 1777822028 | 15.56° C | 51% | 1007.5 hPa | 0 mm | - | - | - |
| 1777820828 | 15.56° C | 48% | 1007.4 hPa | 0 mm | - | - | - |
| 1777819628 | 15.56° C | 49% | 1007.5 hPa | 0 mm | - | - | - |
| 1777818428 | 16.11° C | 48% | 1007.5 hPa | 0 mm | - | - | - |
| 1777817228 | 16.11° C | 47% | 1007.5 hPa | 0 mm | - | - | - |
| 1777816028 | 16.67° C | 45% | 1007.6 hPa | 0 mm | - | - | - |
| 1777814828 | 16.67° C | 46% | 1007.5 hPa | 0 mm | - | - | - |
| 1777813627 | 16.67° C | 45% | 1007.4 hPa | 0 mm | - | - | - |
| 1777812428 | 17.22° C | 45% | 1007.6 hPa | 0 mm | - | - | - |
| 1777811227 | 16.67° C | 47% | 1007.6 hPa | 0 mm | - | - | - |
| 1777810027 | 17.22° C | 46% | 1007.6 hPa | 0 mm | - | - | - |
| 1777808827 | 17.22° C | 50% | 1007.6 hPa | 0 mm | - | - | - |
| 1777807627 | 16.11° C | 53% | 1007.8 hPa | 0 mm | - | - | - |
| 1777806427 | 15.56° C | 56% | 1007.8 hPa | 0 mm | - | - | - |
| 1777805232 | 16.11° C | 55% | 1007.6 hPa | 0 mm | - | - | - |
| 1777804027 | 15° C | 56% | 1007.6 hPa | 0 mm | - | - | - |
| 1777802827 | 15° C | 56% | 1007.5 hPa | 0 mm | - | - | - |
| 1777801627 | 16.67° C | 52% | 1007.3 hPa | 0 mm | - | - | - |
* Rain latest hour (hover to see other rain measurements)
** Current wind speed in m/s (hover to see current wind gust speed)